Time;durP1;ratioP1;P1;durP2;ratioP2;P2;SDS_P1;SDS_P2;PMS_P1;PMS_P2;Temp;Humidity;BMP_temperature;BMP_pressure;BME280_temperature;BME280_humidity;BME280_pressure;Samples;Min_cycle;Max_cycle;Signal;HPM_P1;HPM_P2
2023/04/30 00:02:22;;;;;;;5.17;2.60;;;;;;;;;;4993744;28;20228;-76
2023/04/30 00:04:47;;;;;;;5.30;2.37;;;;;;;;;;5028060;28;20228;-77
2023/04/30 00:07:13;;;;;;;9.97;3.07;;;;;;;;;;5006762;28;20220;-78
2023/04/30 00:09:38;;;;;;;6.63;2.80;;;;;;;;;;5009470;28;20232;-80
2023/04/30 00:12:04;;;;;;;6.03;2.50;;;;;;;;;;5031625;28;20767;-79
2023/04/30 00:14:30;;;;;;;7.10;2.67;;;;;;;;;;5025890;28;20324;-78
2023/04/30 00:16:57;;;;;;;8.00;2.77;;;;;;;;;;5023064;28;20224;-77
2023/04/30 00:19:23;;;;;;;7.10;2.83;;;;;;;;;;4974152;28;20849;-81
2023/04/30 00:21:49;;;;;;;5.47;3.10;;;;;;;;;;4990872;28;20208;-80
2023/04/30 00:24:14;;;;;;;8.07;3.03;;;;;;;;;;5009032;28;20242;-80
2023/04/30 00:26:41;;;;;;;6.83;2.70;;;;;;;;;;4991653;28;20221;-78
2023/04/30 00:29:07;;;;;;;6.83;3.00;;;;;;;;;;4992033;28;20217;-80
2023/04/30 00:31:32;;;;;;;8.03;3.20;;;;;;;;;;5019754;28;20220;-79
2023/04/30 00:33:58;;;;;;;9.07;3.27;;;;;;;;;;5017925;28;20216;-80
2023/04/30 00:36:28;;;;;;;7.27;2.97;;;;;;;;;;4997525;28;20231;-80
2023/04/30 00:38:55;;;;;;;6.87;3.10;;;;;;;;;;5000158;28;20320;-80
2023/04/30 00:41:21;;;;;;;7.83;2.90;;;;;;;;;;5014770;28;20740;-80
2023/04/30 00:43:46;;;;;;;12.57;3.10;;;;;;;;;;4996369;28;20231;-79
2023/04/30 00:46:12;;;;;;;7.67;2.87;;;;;;;;;;5010252;28;20227;-80
2023/04/30 00:48:40;;;;;;;5.87;2.70;;;;;;;;;;5015279;28;20228;-79
2023/04/30 00:51:05;;;;;;;10.03;3.07;;;;;;;;;;4999465;28;20232;-82
2023/04/30 00:53:33;;;;;;;6.10;2.57;;;;;;;;;;4996453;28;20227;-81
2023/04/30 00:56:01;;;;;;;10.43;3.20;;;;;;;;;;4975788;28;20250;-81
2023/04/30 00:58:27;;;;;;;8.27;2.60;;;;;;;;;;4996882;28;20224;-81
2023/04/30 01:00:52;;;;;;;8.43;2.63;;;;;;;;;;5000261;28;20872;-78
2023/04/30 01:03:18;;;;;;;5.90;2.73;;;;;;;;;;4998562;28;20232;-80
2023/04/30 01:05:44;;;;;;;7.67;3.10;;;;;;;;;;4998936;28;20224;-79
2023/04/30 01:08:09;;;;;;;4.83;2.70;;;;;;;;;;4995537;28;20235;-81
2023/04/30 01:10:57;;;;;;;6.17;3.03;;;;;;;;;;4998984;28;20788;-79
2023/04/30 01:13:29;;;;;;;9.57;2.70;;;;;;;;;;5012109;28;20240;-79
2023/04/30 01:16:27;;;;;;;6.63;2.87;;;;;;;;;;5000900;28;20237;-81
2023/04/30 01:19:02;;;;;;;6.13;2.87;;;;;;;;;;4950106;28;20235;-80
2023/04/30 01:21:31;;;;;;;6.00;2.77;;;;;;;;;;5003779;28;20681;-80
2023/04/30 01:24:15;;;;;;;6.47;2.77;;;;;;;;;;5003667;28;20266;-80
2023/04/30 01:27:29;;;;;;;6.70;2.87;;;;;;;;;;5006758;28;20267;-80
2023/04/30 01:29:55;;;;;;;6.17;2.80;;;;;;;;;;5011687;28;20223;-79
2023/04/30 01:32:23;;;;;;;5.10;2.70;;;;;;;;;;5006294;28;20228;-78
2023/04/30 01:34:50;;;;;;;7.27;2.80;;;;;;;;;;5009208;28;20228;-78
2023/04/30 01:37:30;;;;;;;5.37;3.03;;;;;;;;;;5011515;28;20220;-79
2023/04/30 01:40:11;;;;;;;4.93;2.83;;;;;;;;;;5014705;28;20223;-78
2023/04/30 01:42:57;;;;;;;9.37;3.40;;;;;;;;;;4998680;28;20224;-80
2023/04/30 01:45:38;;;;;;;5.00;3.03;;;;;;;;;;5005594;28;20244;-80
2023/04/30 01:48:15;;;;;;;9.17;3.23;;;;;;;;;;5026122;28;20220;-80
2023/04/30 01:50:51;;;;;;;8.43;3.77;;;;;;;;;;5017454;28;20251;-80
2023/04/30 01:53:26;;;;;;;8.47;3.73;;;;;;;;;;4999999;28;20303;-81
2023/04/30 01:56:05;;;;;;;6.07;3.60;;;;;;;;;;4989197;28;20830;-80
2023/04/30 01:58:34;;;;;;;9.97;5.17;;;;;;;;;;4993242;28;20225;-80
2023/04/30 02:00:59;;;;;;;11.30;8.13;;;;;;;;;;4999223;28;20288;-79
2023/04/30 02:03:25;;;;;;;14.97;9.33;;;;;;;;;;4992851;28;20294;-80
2023/04/30 02:05:50;;;;;;;20.23;10.50;;;;;;;;;;5015967;28;20224;-80
2023/04/30 02:08:16;;;;;;;12.97;8.53;;;;;;;;;;4985447;28;20213;-79
2023/04/30 02:10:41;;;;;;;13.47;7.37;;;;;;;;;;5016518;28;20220;-80
2023/04/30 02:13:07;;;;;;;11.77;7.80;;;;;;;;;;5015752;28;20228;-80
2023/04/30 02:15:32;;;;;;;10.37;7.90;;;;;;;;;;4994677;28;20628;-81
2023/04/30 02:17:58;;;;;;;13.90;7.63;;;;;;;;;;5002746;28;20238;-79
2023/04/30 02:20:23;;;;;;;14.17;7.40;;;;;;;;;;5002933;28;20224;-80
2023/04/30 02:22:50;;;;;;;9.87;6.17;;;;;;;;;;4994766;28;20229;-81
2023/04/30 02:25:23;;;;;;;9.60;6.60;;;;;;;;;;4994804;28;20224;-80
2023/04/30 02:27:50;;;;;;;8.87;4.93;;;;;;;;;;5014916;28;20228;-80
2023/04/30 02:30:19;;;;;;;6.40;4.53;;;;;;;;;;4999374;28;20225;-80
2023/04/30 02:32:46;;;;;;;6.13;4.00;;;;;;;;;;5005522;28;20304;-80
2023/04/30 02:35:14;;;;;;;5.27;3.50;;;;;;;;;;4986555;28;20270;-79
2023/04/30 02:37:40;;;;;;;7.90;3.87;;;;;;;;;;5010642;28;20242;-80
2023/04/30 02:40:09;;;;;;;7.47;4.07;;;;;;;;;;5000664;28;20700;-79
2023/04/30 02:42:40;;;;;;;6.87;3.63;;;;;;;;;;5015786;28;20244;-79
2023/04/30 02:45:06;;;;;;;7.13;3.77;;;;;;;;;;4986365;28;20251;-79
2023/04/30 02:47:31;;;;;;;8.73;3.57;;;;;;;;;;4998899;28;20223;-80
2023/04/30 02:49:57;;;;;;;7.97;3.57;;;;;;;;;;5001978;28;20642;-80
2023/04/30 02:52:22;;;;;;;8.30;4.20;;;;;;;;;;5012347;28;20281;-79
2023/04/30 02:54:48;;;;;;;10.90;4.33;;;;;;;;;;4998266;28;20230;-78
2023/04/30 02:57:16;;;;;;;7.43;4.20;;;;;;;;;;4994383;28;20231;-79
2023/04/30 02:59:44;;;;;;;5.97;3.80;;;;;;;;;;5007352;28;20649;-79
2023/04/30 03:02:11;;;;;;;5.17;3.57;;;;;;;;;;4996073;28;20615;-80
2023/04/30 03:04:39;;;;;;;6.37;3.23;;;;;;;;;;4997388;28;20632;-80
2023/04/30 03:07:07;;;;;;;8.20;3.40;;;;;;;;;;5000486;28;20594;-80
2023/04/30 03:09:33;;;;;;;4.97;2.93;;;;;;;;;;4988504;28;20231;-80
2023/04/30 03:12:03;;;;;;;6.57;3.03;;;;;;;;;;4998590;28;20313;-80
2023/04/30 03:14:31;;;;;;;6.07;3.13;;;;;;;;;;5009375;28;20224;-80
2023/04/30 03:16:57;;;;;;;4.90;3.00;;;;;;;;;;5001000;28;20891;-79
2023/04/30 03:19:24;;;;;;;6.50;3.03;;;;;;;;;;5011057;28;20233;-80
2023/04/30 03:21:51;;;;;;;6.80;3.90;;;;;;;;;;4997047;28;20226;-79
2023/04/30 03:24:18;;;;;;;6.57;3.60;;;;;;;;;;5006621;28;20228;-80
2023/04/30 03:26:44;;;;;;;11.83;4.40;;;;;;;;;;4997771;28;20227;-80
2023/04/30 03:29:09;;;;;;;8.27;3.60;;;;;;;;;;5016916;28;20241;-79
2023/04/30 03:31:35;;;;;;;4.53;3.57;;;;;;;;;;5002923;28;20751;-79
2023/04/30 03:34:03;;;;;;;6.97;3.30;;;;;;;;;;4999518;28;20220;-79
2023/04/30 03:36:28;;;;;;;4.33;3.40;;;;;;;;;;4977487;28;20243;-78
2023/04/30 03:38:54;;;;;;;7.03;3.20;;;;;;;;;;5010846;28;20294;-79
2023/04/30 03:41:23;;;;;;;5.70;3.30;;;;;;;;;;5003759;28;20228;-77
2023/04/30 03:43:51;;;;;;;5.73;3.27;;;;;;;;;;5018021;28;20240;-79
2023/04/30 03:46:16;;;;;;;8.67;3.80;;;;;;;;;;4984622;28;20217;-79
2023/04/30 03:48:43;;;;;;;8.33;4.70;;;;;;;;;;4993723;28;20224;-79
2023/04/30 03:51:09;;;;;;;9.43;4.23;;;;;;;;;;4981044;28;20216;-79
2023/04/30 03:53:34;;;;;;;9.27;4.40;;;;;;;;;;4984206;28;20230;-80
2023/04/30 03:56:00;;;;;;;6.07;4.40;;;;;;;;;;5020281;28;20228;-80
2023/04/30 03:58:25;;;;;;;6.43;4.00;;;;;;;;;;4975726;28;20633;-79
2023/04/30 04:00:56;;;;;;;5.27;3.87;;;;;;;;;;5004245;28;20216;-79
2023/04/30 04:03:24;;;;;;;6.70;4.13;;;;;;;;;;4979399;28;20665;-81
2023/04/30 04:05:50;;;;;;;7.90;4.30;;;;;;;;;;5000323;28;20276;-80
2023/04/30 04:08:16;;;;;;;9.90;4.03;;;;;;;;;;4983117;28;20226;-79
2023/04/30 04:10:42;;;;;;;5.83;3.80;;;;;;;;;;4993207;28;20607;-78
2023/04/30 04:13:08;;;;;;;5.77;3.90;;;;;;;;;;4988902;28;20220;-79
2023/04/30 04:15:34;;;;;;;6.97;4.03;;;;;;;;;;5000872;28;20235;-80
2023/04/30 04:18:00;;;;;;;7.03;3.67;;;;;;;;;;5001989;28;20275;-78
2023/04/30 04:20:27;;;;;;;6.17;4.10;;;;;;;;;;5005121;28;20220;-79
2023/04/30 04:22:53;;;;;;;6.53;4.30;;;;;;;;;;5014383;28;20244;-79
2023/04/30 04:25:24;;;;;;;7.10;4.20;;;;;;;;;;4981134;28;20228;-79
2023/04/30 04:27:52;;;;;;;7.13;4.33;;;;;;;;;;4983111;28;20220;-78
2023/04/30 04:30:18;;;;;;;4.50;3.60;;;;;;;;;;5019914;28;20221;-81
2023/04/30 04:32:49;;;;;;;5.03;3.80;;;;;;;;;;4998898;28;20224;-80
2023/04/30 04:35:15;;;;;;;7.93;4.17;;;;;;;;;;4997090;28;20220;-81
2023/04/30 04:37:44;;;;;;;5.23;3.50;;;;;;;;;;5007572;28;20288;-79
2023/04/30 04:40:11;;;;;;;7.03;4.30;;;;;;;;;;4998063;28;20456;-80
2023/04/30 04:42:39;;;;;;;5.53;4.10;;;;;;;;;;4996430;28;20811;-79
2023/04/30 04:45:06;;;;;;;5.27;3.50;;;;;;;;;;4999667;28;20671;-80
2023/04/30 04:47:35;;;;;;;6.43;3.70;;;;;;;;;;5009401;28;20259;-80
2023/04/30 04:50:01;;;;;;;11.47;3.63;;;;;;;;;;4999717;28;20400;-80
2023/04/30 04:52:29;;;;;;;3.67;3.23;;;;;;;;;;5003544;28;20810;-79
2023/04/30 04:54:55;;;;;;;6.10;3.30;;;;;;;;;;4996934;28;20571;-80
2023/04/30 04:57:20;;;;;;;4.00;2.90;;;;;;;;;;4982840;28;20243;-78
2023/04/30 04:59:46;;;;;;;5.43;3.27;;;;;;;;;;5004746;28;20253;-79
2023/04/30 05:02:14;;;;;;;5.97;3.50;;;;;;;;;;5005091;28;20226;-78
2023/04/30 05:04:42;;;;;;;5.23;3.40;;;;;;;;;;4996409;28;20876;-78
2023/04/30 05:07:08;;;;;;;9.43;4.07;;;;;;;;;;5018426;28;20224;-79
2023/04/30 05:09:36;;;;;;;5.33;3.97;;;;;;;;;;5015660;28;20230;-78
2023/04/30 05:12:01;;;;;;;6.00;3.40;;;;;;;;;;5020252;28;20228;-78
2023/04/30 05:14:29;;;;;;;7.67;3.87;;;;;;;;;;4996381;28;20224;-77
2023/04/30 05:16:55;;;;;;;8.20;3.80;;;;;;;;;;5021653;28;20227;-80
2023/04/30 05:19:21;;;;;;;8.57;3.53;;;;;;;;;;5004270;28;20220;-81
2023/04/30 05:21:46;;;;;;;6.10;3.37;;;;;;;;;;5015800;28;20238;-79
2023/04/30 05:24:12;;;;;;;6.87;3.60;;;;;;;;;;4986723;28;20232;-78
2023/04/30 05:26:37;;;;;;;6.67;3.37;;;;;;;;;;5002723;28;20213;-81
2023/04/30 05:29:05;;;;;;;6.30;3.47;;;;;;;;;;5011151;28;20225;-80
2023/04/30 05:31:31;;;;;;;6.80;3.40;;;;;;;;;;5031804;28;20220;-80
2023/04/30 05:33:56;;;;;;;5.93;3.50;;;;;;;;;;5020016;28;20225;-78
2023/04/30 05:36:22;;;;;;;8.33;3.83;;;;;;;;;;4993844;28;21084;-78
2023/04/30 05:38:47;;;;;;;9.43;3.97;;;;;;;;;;5008517;28;20235;-77
2023/04/30 05:41:13;;;;;;;9.17;3.60;;;;;;;;;;5014963;28;20235;-77
2023/04/30 05:43:38;;;;;;;9.57;3.83;;;;;;;;;;5007356;28;20241;-77
2023/04/30 05:46:06;;;;;;;7.50;4.53;;;;;;;;;;5012766;28;20229;-77
2023/04/30 05:48:31;;;;;;;8.13;4.50;;;;;;;;;;5027601;28;20234;-78
2023/04/30 05:50:57;;;;;;;8.20;4.13;;;;;;;;;;5005168;28;20228;-77
2023/04/30 05:53:23;;;;;;;7.00;4.50;;;;;;;;;;5020493;28;20234;-78
2023/04/30 05:55:48;;;;;;;9.07;4.60;;;;;;;;;;4997148;28;20219;-80
2023/04/30 05:58:14;;;;;;;11.60;4.70;;;;;;;;;;4984107;28;20225;-80
2023/04/30 06:00:39;;;;;;;7.27;4.60;;;;;;;;;;5017149;28;20220;-80
2023/04/30 06:03:05;;;;;;;8.17;4.07;;;;;;;;;;5028747;28;20228;-80
2023/04/30 06:05:33;;;;;;;8.13;4.47;;;;;;;;;;5021178;28;20236;-80
2023/04/30 06:07:58;;;;;;;7.53;4.20;;;;;;;;;;4998398;28;20311;-80
2023/04/30 06:10:24;;;;;;;10.60;4.83;;;;;;;;;;4987796;28;20242;-79
2023/04/30 06:12:49;;;;;;;5.50;4.03;;;;;;;;;;5003349;28;20224;-79
2023/04/30 06:15:15;;;;;;;9.97;4.53;;;;;;;;;;5004406;28;20232;-81
2023/04/30 06:17:41;;;;;;;9.27;4.70;;;;;;;;;;5020297;28;20304;-80
2023/04/30 06:20:07;;;;;;;9.87;4.40;;;;;;;;;;5003698;28;20227;-78
2023/04/30 06:22:35;;;;;;;6.83;4.33;;;;;;;;;;4987796;28;20287;-78
2023/04/30 06:25:03;;;;;;;8.30;4.23;;;;;;;;;;4980906;28;20224;-79
2023/04/30 06:27:31;;;;;;;7.00;4.43;;;;;;;;;;4987363;28;20224;-78
2023/04/30 06:29:56;;;;;;;8.63;4.47;;;;;;;;;;4991421;28;20240;-76
2023/04/30 06:32:22;;;;;;;8.37;4.27;;;;;;;;;;5020728;28;20235;-78
2023/04/30 06:34:47;;;;;;;7.97;4.43;;;;;;;;;;5023746;28;20235;-78
2023/04/30 06:37:16;;;;;;;8.43;4.00;;;;;;;;;;4998284;28;20691;-78
2023/04/30 06:39:41;;;;;;;8.17;3.90;;;;;;;;;;5002939;28;20217;-80
2023/04/30 06:42:07;;;;;;;10.33;3.53;;;;;;;;;;4982730;28;20231;-78
2023/04/30 06:44:32;;;;;;;6.27;3.97;;;;;;;;;;5003678;28;20230;-79
2023/04/30 06:47:01;;;;;;;11.63;4.13;;;;;;;;;;5006258;28;20261;-79
2023/04/30 06:49:26;;;;;;;7.43;4.50;;;;;;;;;;5015446;28;20359;-79
2023/04/30 06:51:54;;;;;;;9.63;4.80;;;;;;;;;;5017760;28;20764;-78
2023/04/30 06:54:25;;;;;;;8.03;4.17;;;;;;;;;;5007140;28;20228;-79
2023/04/30 06:56:51;;;;;;;10.27;4.17;;;;;;;;;;5009119;28;20220;-79
2023/04/30 06:59:16;;;;;;;10.93;4.40;;;;;;;;;;5002428;28;20293;-78
2023/04/30 07:01:42;;;;;;;10.57;4.13;;;;;;;;;;5001032;28;20307;-79
2023/04/30 07:04:07;;;;;;;10.83;3.87;;;;;;;;;;4998832;28;20255;-79
2023/04/30 07:06:33;;;;;;;8.03;3.93;;;;;;;;;;4983276;28;20315;-79
2023/04/30 07:08:58;;;;;;;10.00;3.57;;;;;;;;;;5014580;28;20220;-78
2023/04/30 07:11:27;;;;;;;7.90;3.67;;;;;;;;;;4989122;28;20231;-78
2023/04/30 07:13:52;;;;;;;10.07;3.83;;;;;;;;;;4996406;28;20238;-81
2023/04/30 07:16:20;;;;;;;7.73;3.17;;;;;;;;;;4979362;28;20228;-80
2023/04/30 07:18:48;;;;;;;7.93;3.43;;;;;;;;;;4990937;28;20241;-80
2023/04/30 07:21:14;;;;;;;6.53;3.10;;;;;;;;;;5024122;28;20220;-79
2023/04/30 07:23:40;;;;;;;8.80;3.57;;;;;;;;;;5023031;28;20235;-80
2023/04/30 07:26:05;;;;;;;9.77;3.67;;;;;;;;;;5000787;28;20302;-79
2023/04/30 07:28:31;;;;;;;10.27;3.30;;;;;;;;;;4999878;28;20212;-81
2023/04/30 07:30:59;;;;;;;6.33;2.70;;;;;;;;;;4997236;28;20231;-81
2023/04/30 07:33:24;;;;;;;6.60;3.07;;;;;;;;;;5014562;28;20236;-79
2023/04/30 07:35:51;;;;;;;9.57;2.80;;;;;;;;;;4999760;28;20215;-80
2023/04/30 07:38:17;;;;;;;8.17;2.93;;;;;;;;;;5003645;28;20244;-81
2023/04/30 07:40:43;;;;;;;7.37;3.10;;;;;;;;;;4996277;28;20238;-80
2023/04/30 07:43:09;;;;;;;8.17;3.37;;;;;;;;;;5020665;28;20793;-79
2023/04/30 07:45:34;;;;;;;6.40;2.77;;;;;;;;;;5020680;28;20241;-80
2023/04/30 07:48:00;;;;;;;6.43;3.30;;;;;;;;;;5012875;28;20270;-81
2023/04/30 07:50:27;;;;;;;6.50;3.33;;;;;;;;;;5005702;28;20216;-81
2023/04/30 07:52:55;;;;;;;7.40;3.20;;;;;;;;;;5005662;28;20232;-80
2023/04/30 07:55:20;;;;;;;9.37;3.47;;;;;;;;;;4983948;28;20240;-80
2023/04/30 07:57:46;;;;;;;10.10;3.43;;;;;;;;;;5033899;28;20259;-81
2023/04/30 08:00:13;;;;;;;7.77;3.10;;;;;;;;;;5002935;28;20604;-79
2023/04/30 08:02:39;;;;;;;5.40;3.17;;;;;;;;;;4977510;28;20255;-81
2023/04/30 08:05:04;;;;;;;9.80;3.60;;;;;;;;;;4998116;28;20224;-81
2023/04/30 08:07:30;;;;;;;7.73;3.37;;;;;;;;;;4997993;28;20220;-81
2023/04/30 08:09:55;;;;;;;8.77;3.33;;;;;;;;;;4980072;28;20220;-81
2023/04/30 08:12:23;;;;;;;7.57;3.33;;;;;;;;;;5000590;28;20311;-82
2023/04/30 08:14:48;;;;;;;7.00;2.80;;;;;;;;;;5000841;28;20227;-81
2023/04/30 08:17:14;;;;;;;7.87;3.90;;;;;;;;;;4998339;28;20226;-80
2023/04/30 08:19:39;;;;;;;7.47;3.93;;;;;;;;;;4981654;28;20223;-81
2023/04/30 08:22:05;;;;;;;7.60;3.50;;;;;;;;;;5005052;28;20227;-81
2023/04/30 08:24:30;;;;;;;7.07;3.60;;;;;;;;;;4998614;28;20224;-81
2023/04/30 08:26:56;;;;;;;8.50;3.30;;;;;;;;;;5015322;28;20216;-80
2023/04/30 08:29:24;;;;;;;5.73;3.00;;;;;;;;;;4965142;28;20684;-80
2023/04/30 08:31:52;;;;;;;6.33;3.33;;;;;;;;;;5001347;28;20609;-81
2023/04/30 08:34:21;;;;;;;6.47;3.07;;;;;;;;;;4976472;28;20235;-81
2023/04/30 08:36:46;;;;;;;8.03;3.30;;;;;;;;;;5002457;28;20307;-82
2023/04/30 08:39:12;;;;;;;5.97;3.13;;;;;;;;;;5000813;28;20231;-80
2023/04/30 08:41:37;;;;;;;8.20;3.10;;;;;;;;;;5002710;28;20220;-81
2023/04/30 08:44:03;;;;;;;6.10;3.30;;;;;;;;;;4979577;28;20283;-78
2023/04/30 08:46:30;;;;;;;7.83;3.23;;;;;;;;;;5008329;28;20243;-80
2023/04/30 08:48:56;;;;;;;10.93;3.87;;;;;;;;;;4996065;28;20227;-80
2023/04/30 08:51:23;;;;;;;9.43;3.37;;;;;;;;;;4981054;28;20232;-80
2023/04/30 08:53:50;;;;;;;8.20;3.40;;;;;;;;;;5005047;28;20213;-81
2023/04/30 08:56:17;;;;;;;8.60;3.20;;;;;;;;;;5003080;28;20219;-81
2023/04/30 08:58:43;;;;;;;7.07;2.90;;;;;;;;;;4995606;28;20625;-80
2023/04/30 09:01:08;;;;;;;9.93;3.00;;;;;;;;;;5003910;28;20220;-78
2023/04/30 09:03:34;;;;;;;7.83;3.37;;;;;;;;;;4999894;28;20635;-81
2023/04/30 09:05:59;;;;;;;5.50;2.77;;;;;;;;;;4995866;28;20802;-79
2023/04/30 09:08:46;;;;;;;6.73;2.70;;;;;;;;;;4988982;28;20211;-78
2023/04/30 09:11:25;;;;;;;4.43;2.40;;;;;;;;;;5019958;28;20246;-81
2023/04/30 09:13:52;;;;;;;4.90;2.67;;;;;;;;;;4999485;28;20315;-79
2023/04/30 09:16:18;;;;;;;4.10;2.43;;;;;;;;;;4990432;28;20220;-80
2023/04/30 09:18:45;;;;;;;6.67;2.70;;;;;;;;;;5012110;28;20239;-80
2023/04/30 09:21:10;;;;;;;6.50;2.37;;;;;;;;;;4995962;28;20267;-80
2023/04/30 09:23:36;;;;;;;4.07;2.57;;;;;;;;;;5008263;28;20225;-81
2023/04/30 09:26:03;;;;;;;7.70;2.70;;;;;;;;;;5008925;28;20211;-78
2023/04/30 09:28:29;;;;;;;7.50;2.47;;;;;;;;;;4996768;28;20224;-80
2023/04/30 09:30:55;;;;;;;7.67;2.67;;;;;;;;;;4994785;28;20230;-81
2023/04/30 09:33:21;;;;;;;6.33;2.60;;;;;;;;;;4996085;28;20595;-80
2023/04/30 09:35:47;;;;;;;7.47;3.00;;;;;;;;;;4992346;28;20275;-79
2023/04/30 09:38:26;;;;;;;6.77;2.60;;;;;;;;;;5012695;28;20659;-80
2023/04/30 09:40:56;;;;;;;5.83;2.90;;;;;;;;;;5012384;28;20220;-79
2023/04/30 09:43:21;;;;;;;7.60;3.50;;;;;;;;;;5003025;28;20218;-81
2023/04/30 09:45:50;;;;;;;4.50;2.43;;;;;;;;;;4985741;28;20284;-80
2023/04/30 09:48:16;;;;;;;5.57;3.10;;;;;;;;;;4989217;28;20215;-81
2023/04/30 09:50:45;;;;;;;7.93;2.83;;;;;;;;;;4981060;28;20235;-79
2023/04/30 09:53:16;;;;;;;6.03;2.57;;;;;;;;;;4996975;28;20274;-80
2023/04/30 09:55:47;;;;;;;6.57;2.70;;;;;;;;;;4992689;28;20236;-81
2023/04/30 09:58:13;;;;;;;6.37;2.80;;;;;;;;;;5005212;28;20219;-80
2023/04/30 10:00:38;;;;;;;5.23;2.60;;;;;;;;;;5002328;28;20235;-80
2023/04/30 10:03:08;;;;;;;4.83;2.60;;;;;;;;;;4998843;28;20221;-81
2023/04/30 10:05:39;;;;;;;4.73;2.57;;;;;;;;;;4997863;28;20313;-81
2023/04/30 10:08:09;;;;;;;5.37;2.60;;;;;;;;;;4997526;28;20213;-80
2023/04/30 10:10:35;;;;;;;3.83;2.23;;;;;;;;;;5019040;28;20620;-80
2023/04/30 10:13:03;;;;;;;4.80;2.50;;;;;;;;;;4989727;28;20234;-79
2023/04/30 10:15:38;;;;;;;5.50;2.80;;;;;;;;;;4997026;28;20255;-81
2023/04/30 10:18:08;;;;;;;4.97;2.53;;;;;;;;;;5011938;28;20216;-82
2023/04/30 10:20:39;;;;;;;5.03;2.57;;;;;;;;;;4988794;28;20232;-81
2023/04/30 10:23:06;;;;;;;7.40;3.00;;;;;;;;;;5000952;28;20729;-81
2023/04/30 10:25:31;;;;;;;5.60;2.97;;;;;;;;;;4999094;28;20233;-81
2023/04/30 10:27:57;;;;;;;5.73;2.33;;;;;;;;;;4979763;28;20236;-79
2023/04/30 10:30:24;;;;;;;7.90;2.77;;;;;;;;;;4988817;28;20223;-81
2023/04/30 10:32:52;;;;;;;5.70;2.90;;;;;;;;;;5016610;28;20303;-82
2023/04/30 10:35:26;;;;;;;4.90;2.77;;;;;;;;;;4998626;28;20213;-82
2023/04/30 10:38:01;;;;;;;5.67;2.40;;;;;;;;;;4982294;28;20250;-81
2023/04/30 10:40:30;;;;;;;4.27;2.30;;;;;;;;;;4995600;28;20223;-82
2023/04/30 10:42:56;;;;;;;5.00;2.70;;;;;;;;;;5014665;28;20283;-80
2023/04/30 10:45:35;;;;;;;6.20;2.70;;;;;;;;;;5000011;28;20239;-80
2023/04/30 10:48:02;;;;;;;6.17;2.63;;;;;;;;;;4998876;28;20296;-81
2023/04/30 10:50:32;;;;;;;5.20;2.53;;;;;;;;;;5000410;28;20217;-82
2023/04/30 10:53:04;;;;;;;5.37;2.50;;;;;;;;;;5003451;28;20303;-80
2023/04/30 10:55:30;;;;;;;5.43;2.50;;;;;;;;;;5004597;28;20217;-81
2023/04/30 10:57:57;;;;;;;4.43;2.47;;;;;;;;;;4992005;28;20243;-80
2023/04/30 11:00:27;;;;;;;5.30;2.60;;;;;;;;;;4997641;28;20248;-80
2023/04/30 11:03:02;;;;;;;6.33;2.63;;;;;;;;;;5024905;28;20701;-81
2023/04/30 11:05:37;;;;;;;4.77;2.67;;;;;;;;;;5012335;28;21154;-81
2023/04/30 11:08:03;;;;;;;3.53;2.43;;;;;;;;;;4996652;28;20252;-79
2023/04/30 11:10:34;;;;;;;4.90;2.30;;;;;;;;;;4997638;28;20220;-80
2023/04/30 11:13:09;;;;;;;5.43;2.93;;;;;;;;;;4998068;28;20221;-81
2023/04/30 11:15:44;;;;;;;4.57;2.60;;;;;;;;;;4995655;28;20212;-80
2023/04/30 11:18:12;;;;;;;7.00;2.50;;;;;;;;;;5016188;28;20215;-79
2023/04/30 11:21:02;;;;;;;5.77;2.50;;;;;;;;;;4977163;28;20677;-80
2023/04/30 11:23:28;;;;;;;7.07;2.50;;;;;;;;;;4975539;28;20235;-79
2023/04/30 11:25:55;;;;;;;4.60;2.33;;;;;;;;;;5000416;28;20224;-81
2023/04/30 11:28:24;;;;;;;4.93;2.53;;;;;;;;;;4991584;28;20221;-79
2023/04/30 11:30:54;;;;;;;4.47;2.43;;;;;;;;;;4991109;28;20841;-79
2023/04/30 11:33:20;;;;;;;4.87;2.33;;;;;;;;;;5005335;28;20250;-78
2023/04/30 11:35:45;;;;;;;5.83;2.40;;;;;;;;;;5000823;28;20331;-82
2023/04/30 11:38:11;;;;;;;6.70;2.20;;;;;;;;;;5000341;28;20238;-79
2023/04/30 11:40:41;;;;;;;3.87;2.47;;;;;;;;;;4995240;28;20650;-81
2023/04/30 11:43:07;;;;;;;6.43;2.60;;;;;;;;;;5017503;28;20228;-81
2023/04/30 11:45:33;;;;;;;5.13;2.40;;;;;;;;;;4998962;28;20224;-79
2023/04/30 11:47:59;;;;;;;3.25;2.10;;;;;;;;;;4990935;28;21104;-80
2023/04/30 11:50:27;;;;;;;5.30;2.20;;;;;;;;;;5002835;28;20211;-79
2023/04/30 11:52:54;;;;;;;3.67;2.35;;;;;;;;;;5002044;28;20280;-79
2023/04/30 11:55:24;;;;;;;3.83;2.42;;;;;;;;;;5006791;28;20212;-80
2023/04/30 11:57:51;;;;;;;5.43;2.15;;;;;;;;;;4984950;28;20583;-81
2023/04/30 12:00:18;;;;;;;6.45;2.58;;;;;;;;;;4998649;28;20266;-81
2023/04/30 12:02:52;;;;;;;5.65;2.60;;;;;;;;;;4985338;28;20228;-79
2023/04/30 12:05:21;;;;;;;4.10;2.15;;;;;;;;;;4999358;28;20228;-79
2023/04/30 12:07:56;;;;;;;3.93;2.20;;;;;;;;;;4991753;28;20222;-81
2023/04/30 12:10:22;;;;;;;4.72;1.95;;;;;;;;;;4998036;28;20215;-82
2023/04/30 12:12:48;;;;;;;5.43;2.35;;;;;;;;;;4983233;28;20228;-77
2023/04/30 12:15:15;;;;;;;3.93;2.40;;;;;;;;;;5001320;28;20307;-79
2023/04/30 12:17:41;;;;;;;4.15;2.35;;;;;;;;;;4987469;28;20228;-78
2023/04/30 12:20:08;;;;;;;5.67;2.50;;;;;;;;;;4989955;28;20258;-79
2023/04/30 12:22:33;;;;;;;5.47;2.30;;;;;;;;;;4988685;28;20227;-80
2023/04/30 12:24:59;;;;;;;2.53;2.00;;;;;;;;;;4999077;28;20233;-80
2023/04/30 12:27:25;;;;;;;6.95;2.75;;;;;;;;;;5000972;28;20220;-80
2023/04/30 12:29:53;;;;;;;4.15;2.10;;;;;;;;;;4999132;28;20242;-80
2023/04/30 12:32:23;;;;;;;5.03;2.80;;;;;;;;;;4999233;28;20235;-81
2023/04/30 12:34:49;;;;;;;7.40;2.63;;;;;;;;;;5005693;28;20231;-78
2023/04/30 12:37:15;;;;;;;3.75;2.30;;;;;;;;;;5004701;28;20212;-79
2023/04/30 12:39:41;;;;;;;6.05;2.20;;;;;;;;;;5006833;28;20536;-78
2023/04/30 12:42:07;;;;;;;5.00;2.38;;;;;;;;;;5003911;28;20235;-81
2023/04/30 12:44:43;;;;;;;3.63;2.10;;;;;;;;;;5033367;28;20229;-78
2023/04/30 12:47:09;;;;;;;4.53;2.22;;;;;;;;;;5005459;28;20235;-78
2023/04/30 12:49:44;;;;;;;5.47;2.20;;;;;;;;;;4996234;28;20224;-79
2023/04/30 12:52:11;;;;;;;4.40;2.08;;;;;;;;;;4999967;28;20315;-78
2023/04/30 12:54:37;;;;;;;4.35;2.00;;;;;;;;;;4997046;28;20234;-79
2023/04/30 12:57:09;;;;;;;4.20;2.30;;;;;;;;;;5000476;28;20748;-80
2023/04/30 12:59:51;;;;;;;4.32;2.28;;;;;;;;;;4994866;28;20235;-79
2023/04/30 13:02:16;;;;;;;5.05;2.45;;;;;;;;;;4997529;28;20220;-79
2023/04/30 13:04:45;;;;;;;5.07;2.88;;;;;;;;;;4981747;28;20258;-81
2023/04/30 13:07:12;;;;;;;3.70;2.20;;;;;;;;;;4998712;28;20531;-78
2023/04/30 13:09:38;;;;;;;4.17;2.00;;;;;;;;;;4984264;28;20216;-81
2023/04/30 13:12:03;;;;;;;6.82;2.28;;;;;;;;;;5031387;28;20217;-80
2023/04/30 13:14:32;;;;;;;4.22;2.13;;;;;;;;;;5001215;28;20224;-79
2023/04/30 13:16:58;;;;;;;4.78;2.10;;;;;;;;;;4996960;28;20234;-81
2023/04/30 13:19:24;;;;;;;7.53;4.55;;;;;;;;;;5012638;28;20236;-80
2023/04/30 13:21:49;;;;;;;7.05;3.33;;;;;;;;;;5017907;28;20327;-78
2023/04/30 13:24:16;;;;;;;3.95;2.00;;;;;;;;;;5003903;28;21165;-81
2023/04/30 13:26:42;;;;;;;5.30;2.30;;;;;;;;;;4999881;28;20221;-81
2023/04/30 13:29:07;;;;;;;7.47;2.40;;;;;;;;;;5002504;28;20224;-81
2023/04/30 13:31:33;;;;;;;4.45;2.40;;;;;;;;;;5005395;28;20291;-79
2023/04/30 13:33:58;;;;;;;4.57;2.28;;;;;;;;;;5009930;28;20327;-80
2023/04/30 13:36:26;;;;;;;2.80;1.73;;;;;;;;;;5011538;28;20224;-80
2023/04/30 13:38:52;;;;;;;6.05;2.30;;;;;;;;;;5044883;28;20259;-80
2023/04/30 13:41:19;;;;;;;4.47;2.00;;;;;;;;;;4993373;28;20223;-81
2023/04/30 13:43:47;;;;;;;4.47;1.80;;;;;;;;;;4984486;28;20320;-82
2023/04/30 13:46:13;;;;;;;4.25;2.13;;;;;;;;;;4993992;28;20242;-81
2023/04/30 13:48:41;;;;;;;4.88;2.25;;;;;;;;;;4995100;28;20599;-82
2023/04/30 13:51:10;;;;;;;3.72;2.10;;;;;;;;;;5005953;28;20224;-82
2023/04/30 13:53:39;;;;;;;3.97;1.80;;;;;;;;;;5021411;28;20228;-82
2023/04/30 13:56:05;;;;;;;3.83;1.90;;;;;;;;;;4983602;28;20243;-81
2023/04/30 13:58:31;;;;;;;3.20;2.10;;;;;;;;;;4994693;28;20251;-82
2023/04/30 14:00:57;;;;;;;4.20;2.35;;;;;;;;;;5023483;28;20224;-81
2023/04/30 14:03:22;;;;;;;4.45;2.17;;;;;;;;;;5009763;28;20236;-80
2023/04/30 14:05:48;;;;;;;5.00;2.17;;;;;;;;;;5002834;28;20216;-79
2023/04/30 14:08:13;;;;;;;4.72;2.20;;;;;;;;;;5003375;28;20212;-82
2023/04/30 14:10:39;;;;;;;3.75;2.03;;;;;;;;;;5029583;28;20258;-81
2023/04/30 14:13:05;;;;;;;2.85;1.80;;;;;;;;;;5026409;28;20239;-83
2023/04/30 14:15:31;;;;;;;4.90;2.13;;;;;;;;;;4994113;28;20204;-82
2023/04/30 14:18:00;;;;;;;4.10;2.17;;;;;;;;;;5012511;28;20574;-82
2023/04/30 14:20:26;;;;;;;5.65;2.25;;;;;;;;;;5003985;28;20617;-83
2023/04/30 14:22:51;;;;;;;3.63;2.00;;;;;;;;;;5006276;28;20232;-81
2023/04/30 14:25:17;;;;;;;4.40;1.90;;;;;;;;;;4995994;28;20267;-83
2023/04/30 14:27:46;;;;;;;3.65;2.03;;;;;;;;;;4990939;28;20220;-81
2023/04/30 14:30:12;;;;;;;4.40;2.17;;;;;;;;;;5029146;28;20218;-80
2023/04/30 14:32:40;;;;;;;3.85;2.20;;;;;;;;;;5015702;28;20696;-83
2023/04/30 14:35:06;;;;;;;5.22;2.15;;;;;;;;;;4982991;28;20225;-81
2023/04/30 14:37:32;;;;;;;3.90;1.85;;;;;;;;;;5002671;28;20220;-81
2023/04/30 14:39:59;;;;;;;3.45;2.47;;;;;;;;;;5003575;28;20258;-80
2023/04/30 14:42:27;;;;;;;3.40;1.90;;;;;;;;;;5001991;28;20243;-82
2023/04/30 14:44:55;;;;;;;4.40;1.80;;;;;;;;;;4999623;28;20867;-82
2023/04/30 14:47:21;;;;;;;2.85;1.95;;;;;;;;;;5029270;28;20824;-80